createdAt,value
2023-04-30T00:00:24.844Z,7.79
2023-04-30T00:02:51.309Z,7.81
2023-04-30T00:05:17.847Z,7.81
2023-04-30T00:07:44.337Z,7.74
2023-04-30T00:10:11.118Z,7.66
2023-04-30T00:12:40.846Z,7.63
2023-04-30T00:15:07.710Z,7.61
2023-04-30T00:17:34.249Z,7.61
2023-04-30T00:20:01.228Z,7.57
2023-04-30T00:22:27.697Z,7.55
2023-04-30T00:24:54.073Z,7.49
2023-04-30T00:27:21.071Z,7.38
2023-04-30T00:29:47.458Z,7.31
2023-04-30T00:32:14.030Z,7.33
2023-04-30T00:34:41.112Z,7.34
2023-04-30T00:37:08.533Z,7.35
2023-04-30T00:39:34.966Z,7.34
2023-04-30T00:42:02.481Z,7.30
2023-04-30T00:44:28.994Z,7.27
2023-04-30T00:46:56.050Z,7.21
2023-04-30T00:49:22.657Z,7.20
2023-04-30T00:51:49.622Z,7.15
2023-04-30T00:54:16.746Z,7.09
2023-04-30T00:56:43.483Z,7.04
2023-04-30T00:59:10.705Z,7.02
2023-04-30T01:01:37.685Z,7.02
2023-04-30T01:04:04.627Z,7.00
2023-04-30T01:06:31.807Z,6.99
2023-04-30T01:08:58.401Z,6.96
2023-04-30T01:11:49.970Z,6.95
2023-04-30T01:14:31.433Z,6.94
2023-04-30T01:17:04.719Z,6.94
2023-04-30T01:19:31.123Z,6.87
2023-04-30T01:22:03.565Z,6.83
2023-04-30T01:24:45.755Z,6.76
2023-04-30T01:27:39.411Z,6.73
2023-04-30T01:30:07.356Z,6.72
2023-04-30T01:32:33.932Z,6.70
2023-04-30T01:35:02.954Z,6.67
2023-04-30T01:37:43.561Z,6.61
2023-04-30T01:40:30.406Z,6.60
2023-04-30T01:42:56.810Z,6.59
2023-04-30T01:45:41.662Z,6.55
2023-04-30T01:48:23.932Z,6.56
2023-04-30T01:50:55.470Z,6.50
2023-04-30T01:53:24.639Z,6.52
2023-04-30T01:55:53.356Z,6.55
2023-04-30T01:58:22.888Z,6.55
2023-04-30T02:00:49.353Z,6.56
2023-04-30T02:03:15.878Z,6.59
2023-04-30T02:05:42.360Z,6.59
2023-04-30T02:08:08.833Z,6.58
2023-04-30T02:10:35.569Z,6.54
2023-04-30T02:13:02.280Z,6.48
2023-04-30T02:15:28.690Z,6.45
2023-04-30T02:17:55.284Z,6.40
2023-04-30T02:20:21.702Z,6.37
2023-04-30T02:22:48.277Z,6.36
2023-04-30T02:25:14.825Z,6.31
2023-04-30T02:27:42.653Z,6.31
2023-04-30T02:30:09.222Z,6.29
2023-04-30T02:32:36.044Z,6.28
2023-04-30T02:35:02.655Z,6.26
2023-04-30T02:37:29.331Z,6.25
2023-04-30T02:39:56.042Z,6.24
2023-04-30T02:42:22.912Z,6.20
2023-04-30T02:44:49.401Z,6.18
2023-04-30T02:47:15.983Z,6.15
2023-04-30T02:49:42.635Z,6.13
2023-04-30T02:52:09.980Z,6.12
2023-04-30T02:54:36.592Z,6.09
2023-04-30T02:57:03.566Z,6.04
2023-04-30T02:59:30.179Z,6.04
2023-04-30T03:01:56.565Z,6.03
2023-04-30T03:04:23.021Z,6.01
2023-04-30T03:06:49.499Z,5.99
2023-04-30T03:09:15.990Z,5.99
2023-04-30T03:11:42.419Z,5.96
2023-04-30T03:14:08.909Z,5.93
2023-04-30T03:16:35.467Z,5.92
2023-04-30T03:19:01.911Z,5.91
2023-04-30T03:21:28.535Z,5.89
2023-04-30T03:23:54.951Z,5.85
2023-04-30T03:26:22.054Z,5.84
2023-04-30T03:28:48.465Z,5.83
2023-04-30T03:31:15.320Z,5.78
2023-04-30T03:33:43.395Z,5.76
2023-04-30T03:36:10.167Z,5.75
2023-04-30T03:38:36.567Z,5.73
2023-04-30T03:41:03.954Z,5.72
2023-04-30T03:43:30.497Z,5.70
2023-04-30T03:45:57.467Z,5.68
2023-04-30T03:48:24.014Z,5.68
2023-04-30T03:50:50.643Z,5.66
2023-04-30T03:53:17.448Z,5.65
2023-04-30T03:55:44.037Z,5.64
2023-04-30T03:58:10.599Z,5.60
2023-04-30T04:00:37.346Z,5.59
2023-04-30T04:03:04.248Z,5.56
2023-04-30T04:05:30.760Z,5.53
2023-04-30T04:07:57.316Z,5.55
2023-04-30T04:10:23.738Z,5.50
2023-04-30T04:12:50.812Z,5.48
2023-04-30T04:15:17.193Z,5.45
2023-04-30T04:17:43.781Z,5.44
2023-04-30T04:20:13.776Z,5.40
2023-04-30T04:22:40.538Z,5.36
2023-04-30T04:25:07.144Z,5.36
2023-04-30T04:27:33.710Z,5.39
2023-04-30T04:30:00.126Z,5.39
2023-04-30T04:32:27.326Z,5.38
2023-04-30T04:34:54.348Z,5.38
2023-04-30T04:37:20.898Z,5.38
2023-04-30T04:39:47.400Z,5.39
2023-04-30T04:42:15.538Z,5.38
2023-04-30T04:44:42.007Z,5.39
2023-04-30T04:47:10.215Z,5.38
2023-04-30T04:49:36.590Z,5.36
2023-04-30T04:52:03.071Z,5.36
2023-04-30T04:54:29.527Z,5.32
2023-04-30T04:56:56.073Z,5.34
2023-04-30T04:59:22.655Z,5.37
2023-04-30T05:01:49.093Z,5.35
2023-04-30T05:04:15.883Z,5.40
2023-04-30T05:06:42.945Z,5.41
2023-04-30T05:09:09.936Z,5.44
2023-04-30T05:11:36.495Z,5.44
2023-04-30T05:14:03.104Z,5.45
2023-04-30T05:16:30.330Z,5.48
2023-04-30T05:18:56.801Z,5.53
2023-04-30T05:21:23.496Z,5.56
2023-04-30T05:23:49.937Z,5.60
2023-04-30T05:26:16.529Z,5.63
2023-04-30T05:28:42.984Z,5.65
2023-04-30T05:31:09.478Z,5.68
2023-04-30T05:33:37.120Z,5.71
2023-04-30T05:36:03.853Z,5.76
2023-04-30T05:38:30.514Z,5.82
2023-04-30T05:40:57.012Z,5.87
2023-04-30T05:43:23.689Z,5.94
2023-04-30T05:45:50.200Z,5.99
2023-04-30T05:48:16.866Z,6.04
2023-04-30T05:50:46.257Z,6.12
2023-04-30T05:53:13.898Z,6.17
2023-04-30T05:55:40.570Z,6.25
2023-04-30T05:58:07.138Z,6.33
2023-04-30T06:00:33.693Z,6.41
2023-04-30T06:03:00.431Z,6.44
2023-04-30T06:05:27.515Z,6.50
2023-04-30T06:07:54.147Z,6.56
2023-04-30T06:10:21.167Z,6.59
2023-04-30T06:12:47.705Z,6.63
2023-04-30T06:15:14.208Z,6.70
2023-04-30T06:17:41.008Z,6.78
2023-04-30T06:20:08.537Z,6.86
2023-04-30T06:22:35.109Z,6.95
2023-04-30T06:25:01.752Z,7.02
2023-04-30T06:27:28.276Z,7.12
2023-04-30T06:29:55.382Z,7.22
2023-04-30T06:32:22.170Z,7.34
2023-04-30T06:34:48.621Z,7.43
2023-04-30T06:37:15.216Z,7.57
2023-04-30T06:39:41.709Z,7.69
2023-04-30T06:42:08.384Z,7.79
2023-04-30T06:44:34.831Z,7.88
2023-04-30T06:47:02.613Z,8.03
2023-04-30T06:49:29.106Z,8.21
2023-04-30T06:51:58.342Z,8.36
2023-04-30T06:54:26.812Z,8.51
2023-04-30T06:56:53.786Z,8.66
2023-04-30T06:59:20.899Z,8.75
2023-04-30T07:01:47.400Z,8.81
2023-04-30T07:04:13.926Z,8.95
2023-04-30T07:06:41.769Z,9.07
2023-04-30T07:09:08.639Z,9.20
2023-04-30T07:11:35.172Z,9.35
2023-04-30T07:14:01.612Z,9.50
2023-04-30T07:16:28.369Z,9.65
2023-04-30T07:18:54.871Z,9.82
2023-04-30T07:21:21.922Z,9.93
2023-04-30T07:23:48.772Z,9.99
2023-04-30T07:26:15.896Z,10.11
2023-04-30T07:28:42.448Z,10.18
2023-04-30T07:31:08.987Z,10.24
2023-04-30T07:33:35.447Z,10.33
2023-04-30T07:36:01.895Z,10.46
2023-04-30T07:38:29.374Z,10.54
2023-04-30T07:40:55.838Z,10.65
2023-04-30T07:43:22.294Z,10.71
2023-04-30T07:45:50.031Z,10.79
2023-04-30T07:48:17.226Z,10.96
2023-04-30T07:50:43.637Z,11.16
2023-04-30T07:53:10.099Z,11.21
2023-04-30T07:55:36.534Z,11.26
2023-04-30T07:58:03.904Z,11.36
2023-04-30T08:00:31.227Z,11.46
2023-04-30T08:02:59.042Z,11.56
2023-04-30T08:05:25.954Z,11.64
2023-04-30T08:07:52.831Z,11.68
2023-04-30T08:10:19.359Z,11.79
2023-04-30T08:12:45.829Z,11.92
2023-04-30T08:15:12.336Z,12.12
2023-04-30T08:17:38.846Z,12.19
2023-04-30T08:20:06.350Z,12.33
2023-04-30T08:22:33.256Z,12.48
2023-04-30T08:25:01.878Z,12.59
2023-04-30T08:27:30.502Z,12.69
2023-04-30T08:29:57.177Z,12.71
2023-04-30T08:32:24.086Z,12.83
2023-04-30T08:34:51.668Z,12.89
2023-04-30T08:37:18.186Z,12.93
2023-04-30T08:39:44.610Z,12.97
2023-04-30T08:42:14.337Z,13.13
2023-04-30T08:44:43.569Z,13.27
2023-04-30T08:47:14.297Z,13.44
2023-04-30T08:49:41.564Z,13.54
2023-04-30T08:52:08.651Z,13.61
2023-04-30T08:54:39.368Z,13.69
2023-04-30T08:57:06.069Z,13.78
2023-04-30T08:59:32.522Z,13.99
2023-04-30T09:02:01.847Z,14.02
2023-04-30T09:04:29.097Z,13.96
2023-04-30T09:07:05.185Z,14.10
2023-04-30T09:09:38.874Z,14.26
2023-04-30T09:12:18.868Z,14.38
2023-04-30T09:15:02.513Z,14.57
2023-04-30T09:17:29.585Z,14.69
2023-04-30T09:20:07.587Z,14.83
2023-04-30T09:22:35.867Z,14.76
2023-04-30T09:25:02.245Z,14.73
2023-04-30T09:27:28.795Z,14.87
2023-04-30T09:29:56.585Z,15.04
2023-04-30T09:32:23.479Z,15.07
2023-04-30T09:34:50.224Z,15.09
2023-04-30T09:37:16.919Z,15.25
2023-04-30T09:39:50.864Z,15.29
2023-04-30T09:42:21.437Z,15.42
2023-04-30T09:44:48.551Z,15.55
2023-04-30T09:47:19.519Z,15.74
2023-04-30T09:49:54.492Z,15.65
2023-04-30T09:52:21.427Z,15.55
2023-04-30T09:54:48.305Z,15.81
2023-04-30T09:57:15.976Z,16.01
2023-04-30T09:59:46.656Z,15.93
2023-04-30T10:02:16.000Z,16.05
2023-04-30T10:04:45.009Z,16.20
2023-04-30T10:07:22.537Z,16.29
2023-04-30T10:09:55.765Z,16.34
2023-04-30T10:12:28.111Z,16.55
2023-04-30T10:15:09.889Z,16.73
2023-04-30T10:17:44.138Z,16.80
2023-04-30T10:20:12.911Z,16.73
2023-04-30T10:22:41.929Z,16.84
2023-04-30T10:25:11.435Z,17.00
2023-04-30T10:27:40.503Z,17.17
2023-04-30T10:30:10.725Z,17.17
2023-04-30T10:33:20.775Z,17.32
2023-04-30T10:36:00.366Z,17.29
2023-04-30T10:38:30.891Z,17.35
2023-04-30T10:40:59.050Z,17.35
2023-04-30T10:43:26.418Z,17.38
2023-04-30T10:45:53.209Z,17.51
2023-04-30T10:48:29.601Z,17.51
2023-04-30T10:50:58.057Z,17.62
2023-04-30T10:53:27.913Z,17.60
2023-04-30T10:55:58.728Z,17.83
2023-04-30T10:58:37.055Z,17.88
2023-04-30T11:01:07.037Z,18.08
2023-04-30T11:03:37.305Z,18.33
2023-04-30T11:06:15.034Z,18.10
2023-04-30T11:08:46.215Z,18.19
2023-04-30T11:11:18.150Z,18.43
2023-04-30T11:13:45.993Z,18.51
2023-04-30T11:16:13.106Z,18.54
2023-04-30T11:18:45.452Z,18.61
2023-04-30T11:21:13.108Z,18.66
2023-04-30T11:23:44.266Z,18.88
2023-04-30T11:26:11.358Z,18.88
2023-04-30T11:28:38.729Z,18.73
2023-04-30T11:31:06.054Z,18.79
2023-04-30T11:33:34.036Z,19.00
2023-04-30T11:36:01.800Z,18.86
2023-04-30T11:38:34.682Z,18.91
2023-04-30T11:41:02.773Z,18.75
2023-04-30T11:43:31.314Z,19.03
2023-04-30T11:46:06.116Z,19.26
2023-04-30T11:48:37.899Z,19.25
2023-04-30T11:51:06.719Z,19.23
2023-04-30T11:53:33.181Z,19.21
2023-04-30T11:56:03.794Z,19.58
2023-04-30T11:58:34.357Z,19.85
2023-04-30T12:01:01.518Z,20.03
2023-04-30T12:03:28.169Z,19.89
2023-04-30T12:05:54.661Z,19.68
2023-04-30T12:08:21.115Z,19.71
2023-04-30T12:10:50.756Z,19.94
2023-04-30T12:13:17.243Z,20.29
2023-04-30T12:15:58.231Z,20.43
2023-04-30T12:18:24.957Z,20.47
2023-04-30T12:20:51.904Z,20.42
2023-04-30T12:23:19.623Z,20.53
2023-04-30T12:25:47.650Z,20.42
2023-04-30T12:28:14.320Z,20.62
2023-04-30T12:30:43.553Z,20.74
2023-04-30T12:33:11.276Z,20.86
2023-04-30T12:35:42.873Z,21.08
2023-04-30T12:38:09.673Z,20.98
2023-04-30T12:40:36.971Z,20.90
2023-04-30T12:43:08.958Z,20.75
2023-04-30T12:45:52.910Z,21.09
2023-04-30T12:48:25.423Z,21.16
2023-04-30T12:50:56.282Z,21.49
2023-04-30T12:53:24.116Z,21.43
2023-04-30T12:56:10.563Z,21.35
2023-04-30T12:58:38.668Z,21.24
2023-04-30T13:01:06.265Z,21.35
2023-04-30T13:03:32.832Z,21.69
2023-04-30T13:06:01.692Z,21.63
2023-04-30T13:08:28.219Z,21.63
2023-04-30T13:10:54.642Z,21.53
2023-04-30T13:13:21.264Z,21.24
2023-04-30T13:15:48.236Z,21.09
2023-04-30T13:18:17.576Z,20.89
2023-04-30T13:20:44.512Z,20.93
2023-04-30T13:23:13.768Z,21.29
2023-04-30T13:25:41.860Z,21.48
2023-04-30T13:28:08.767Z,21.73
2023-04-30T13:30:35.914Z,21.94
2023-04-30T13:33:02.488Z,22.00
2023-04-30T13:35:29.954Z,22.14
2023-04-30T13:37:59.546Z,22.32
2023-04-30T13:40:26.298Z,22.43
2023-04-30T13:42:53.008Z,22.42
2023-04-30T13:45:21.071Z,22.54
2023-04-30T13:47:47.651Z,22.24
2023-04-30T13:50:14.249Z,22.56
2023-04-30T13:52:40.791Z,22.69
2023-04-30T13:55:08.228Z,22.98
2023-04-30T13:57:36.831Z,23.21
2023-04-30T14:00:04.619Z,23.31
2023-04-30T14:02:31.379Z,22.98
2023-04-30T14:05:05.719Z,23.13
2023-04-30T14:07:33.440Z,23.25
2023-04-30T14:10:00.694Z,23.09
2023-04-30T14:12:27.280Z,22.88
2023-04-30T14:14:53.962Z,23.01
2023-04-30T14:17:20.721Z,22.84
2023-04-30T14:19:47.663Z,22.39
2023-04-30T14:22:14.511Z,22.09
2023-04-30T14:24:43.777Z,21.79
2023-04-30T14:27:13.176Z,21.61
2023-04-30T14:29:39.802Z,21.58
2023-04-30T14:32:06.958Z,21.69
2023-04-30T14:34:33.705Z,21.79
2023-04-30T14:37:02.998Z,22.04
2023-04-30T14:39:29.510Z,22.25
2023-04-30T14:41:56.176Z,22.64
2023-04-30T14:44:26.743Z,22.79
2023-04-30T14:46:53.766Z,22.75
2023-04-30T14:49:20.264Z,23.01
2023-04-30T14:51:46.851Z,22.93
2023-04-30T14:54:13.314Z,22.53
2023-04-30T14:56:41.162Z,22.00
2023-04-30T14:59:07.648Z,21.94
2023-04-30T15:01:34.631Z,21.72
2023-04-30T15:04:02.160Z,21.31
2023-04-30T15:06:28.709Z,21.32
2023-04-30T15:08:56.220Z,21.44
2023-04-30T15:11:24.215Z,21.20
2023-04-30T15:13:50.786Z,21.10
2023-04-30T15:16:17.478Z,20.89
2023-04-30T15:18:44.321Z,20.85
2023-04-30T15:21:11.100Z,20.81
2023-04-30T15:23:37.750Z,20.52
2023-04-30T15:26:04.460Z,20.42
2023-04-30T15:28:34.347Z,20.41
2023-04-30T15:31:01.904Z,20.72
2023-04-30T15:33:30.670Z,21.17
2023-04-30T15:35:57.648Z,21.44
2023-04-30T15:38:24.127Z,21.53
2023-04-30T15:40:50.636Z,21.63
2023-04-30T15:43:17.925Z,21.75
2023-04-30T15:45:46.032Z,21.58
2023-04-30T15:48:12.541Z,21.63
2023-04-30T15:50:39.145Z,21.63
2023-04-30T15:53:05.807Z,21.46
2023-04-30T15:55:32.402Z,21.09
2023-04-30T15:57:58.923Z,20.73
2023-04-30T16:00:27.145Z,20.84
2023-04-30T16:02:53.905Z,21.00
2023-04-30T16:05:20.472Z,20.97
2023-04-30T16:07:47.159Z,20.74
2023-04-30T16:10:13.855Z,20.74
2023-04-30T16:12:40.379Z,20.81
2023-04-30T16:15:07.753Z,20.72
2023-04-30T16:17:34.284Z,20.58
2023-04-30T16:20:01.503Z,20.60
2023-04-30T16:22:28.358Z,20.37
2023-04-30T16:24:54.884Z,20.18
2023-04-30T16:27:21.377Z,20.08
2023-04-30T16:29:48.026Z,20.10
2023-04-30T16:32:14.792Z,20.02
2023-04-30T16:34:41.868Z,20.02
2023-04-30T16:37:11.581Z,20.16
2023-04-30T16:39:38.185Z,20.19
2023-04-30T16:42:05.699Z,20.10
2023-04-30T16:44:32.251Z,20.08
2023-04-30T16:46:59.926Z,19.92
2023-04-30T16:49:26.374Z,19.90
2023-04-30T16:51:53.051Z,19.78
2023-04-30T16:54:20.106Z,19.60
2023-04-30T16:56:47.221Z,19.59
2023-04-30T16:59:13.608Z,19.61
2023-04-30T17:01:40.615Z,19.49
2023-04-30T17:04:07.221Z,19.45
2023-04-30T17:06:39.558Z,19.38
2023-04-30T17:09:06.563Z,19.36
2023-04-30T17:11:33.869Z,19.41
2023-04-30T17:14:00.376Z,19.40
2023-04-30T17:16:27.081Z,19.26
2023-04-30T17:18:53.622Z,19.12
2023-04-30T17:21:20.398Z,19.00
2023-04-30T17:23:46.833Z,18.99
2023-04-30T17:26:13.354Z,18.98
2023-04-30T17:28:39.793Z,18.87
2023-04-30T17:31:07.495Z,18.70
2023-04-30T17:33:34.016Z,18.65
2023-04-30T17:36:00.526Z,18.55
2023-04-30T17:38:27.185Z,18.49
2023-04-30T17:40:54.621Z,18.44
2023-04-30T17:43:21.014Z,18.35
2023-04-30T17:45:47.524Z,18.33
2023-04-30T17:48:14.404Z,18.23
2023-04-30T17:50:45.143Z,18.18
2023-04-30T17:53:12.120Z,18.15
2023-04-30T17:55:38.662Z,18.08
2023-04-30T17:58:05.471Z,17.91
2023-04-30T18:00:32.654Z,17.83
2023-04-30T18:02:59.180Z,17.79
2023-04-30T18:05:25.731Z,17.78
2023-04-30T18:07:52.265Z,17.68
2023-04-30T18:10:18.811Z,17.55
2023-04-30T18:12:45.267Z,17.41
2023-04-30T18:15:13.474Z,17.30
2023-04-30T18:17:41.344Z,17.25
2023-04-30T18:20:08.539Z,17.18
2023-04-30T18:22:34.990Z,17.13
2023-04-30T18:25:01.461Z,17.12
2023-04-30T18:27:29.100Z,17.02
2023-04-30T18:29:56.414Z,16.92
2023-04-30T18:32:23.195Z,16.89
2023-04-30T18:34:49.778Z,16.82
2023-04-30T18:37:17.787Z,16.71
2023-04-30T18:39:44.260Z,16.57
2023-04-30T18:42:10.841Z,16.52
2023-04-30T18:44:39.127Z,16.44
2023-04-30T18:47:06.808Z,16.39
2023-04-30T18:49:33.354Z,16.40
2023-04-30T18:52:01.100Z,16.31
2023-04-30T18:54:28.037Z,16.22
2023-04-30T18:56:54.591Z,16.15
2023-04-30T18:59:21.827Z,16.10
2023-04-30T19:01:51.402Z,16.03
2023-04-30T19:04:17.950Z,16.01
2023-04-30T19:06:44.582Z,15.92
2023-04-30T19:09:11.345Z,15.93
2023-04-30T19:11:37.826Z,15.88
2023-04-30T19:14:06.272Z,15.79
2023-04-30T19:16:34.276Z,15.76
2023-04-30T19:19:00.738Z,15.70
2023-04-30T19:21:28.485Z,15.65
2023-04-30T19:23:54.894Z,15.53
2023-04-30T19:26:22.431Z,15.40
2023-04-30T19:28:48.922Z,15.34
2023-04-30T19:31:15.617Z,15.30
2023-04-30T19:33:42.996Z,15.27
2023-04-30T19:36:09.678Z,15.24
2023-04-30T19:38:36.234Z,15.13
2023-04-30T19:41:02.686Z,15.06
2023-04-30T19:43:31.517Z,14.99
2023-04-30T19:45:58.435Z,14.91
2023-04-30T19:48:25.966Z,14.78
2023-04-30T19:50:55.839Z,14.74
2023-04-30T19:53:22.504Z,14.66
2023-04-30T19:55:49.043Z,14.59
2023-04-30T19:58:24.411Z,14.51
2023-04-30T20:00:53.148Z,14.44
2023-04-30T20:03:21.715Z,14.35
2023-04-30T20:05:48.370Z,14.32
2023-04-30T20:08:15.077Z,14.30
2023-04-30T20:10:42.742Z,14.27
2023-04-30T20:13:10.071Z,14.21
2023-04-30T20:15:36.792Z,14.18
2023-04-30T20:18:04.953Z,14.10
2023-04-30T20:20:31.847Z,14.08
2023-04-30T20:22:58.240Z,14.02
2023-04-30T20:25:26.036Z,13.95
2023-04-30T20:28:04.190Z,13.82
2023-04-30T20:30:32.927Z,13.70
2023-04-30T20:32:59.426Z,13.65
2023-04-30T20:35:25.922Z,13.61
2023-04-30T20:37:55.634Z,13.56
2023-04-30T20:40:22.134Z,13.52
2023-04-30T20:42:48.540Z,13.46
2023-04-30T20:45:15.557Z,13.38
2023-04-30T20:47:42.224Z,13.30
2023-04-30T20:50:08.884Z,13.24
2023-04-30T20:52:35.634Z,13.17
2023-04-30T20:55:02.165Z,13.14
2023-04-30T20:57:28.644Z,13.07
2023-04-30T20:59:55.411Z,13.03
2023-04-30T21:02:22.263Z,13.01
2023-04-30T21:04:48.742Z,12.92
2023-04-30T21:07:15.185Z,12.91
2023-04-30T21:09:41.636Z,12.86
2023-04-30T21:12:08.207Z,12.78
2023-04-30T21:14:35.488Z,12.70
2023-04-30T21:17:02.101Z,12.64
2023-04-30T21:19:28.608Z,12.58
2023-04-30T21:21:55.315Z,12.52
2023-04-30T21:24:21.911Z,12.46
2023-04-30T21:26:48.426Z,12.44
2023-04-30T21:29:17.820Z,12.43
2023-04-30T21:31:44.266Z,12.36
2023-04-30T21:34:10.718Z,12.30
2023-04-30T21:36:37.502Z,12.24
2023-04-30T21:39:04.340Z,12.21
2023-04-30T21:41:32.152Z,12.18
2023-04-30T21:43:58.643Z,12.15
2023-04-30T21:46:25.476Z,12.06
2023-04-30T21:48:52.333Z,12.02
2023-04-30T21:51:18.751Z,12.01
2023-04-30T21:53:45.528Z,11.98
2023-04-30T21:56:12.665Z,11.90
2023-04-30T21:58:39.472Z,11.85
2023-04-30T22:01:06.169Z,11.79
2023-04-30T22:03:33.123Z,11.72
2023-04-30T22:05:59.914Z,11.64
2023-04-30T22:08:26.445Z,11.58
2023-04-30T22:11:00.439Z,11.51
2023-04-30T22:13:28.208Z,11.46
2023-04-30T22:15:55.576Z,11.43
2023-04-30T22:18:23.664Z,11.40
2023-04-30T22:20:51.383Z,11.35
2023-04-30T22:23:18.647Z,11.34
2023-04-30T22:25:45.027Z,11.31
2023-04-30T22:28:11.491Z,11.24
2023-04-30T22:30:38.441Z,11.23
2023-04-30T22:33:05.351Z,11.20
2023-04-30T22:35:34.260Z,11.12
2023-04-30T22:38:03.399Z,11.06
2023-04-30T22:40:32.167Z,11.04
2023-04-30T22:42:59.665Z,11.02
2023-04-30T22:45:27.110Z,10.91
2023-04-30T22:47:54.492Z,10.83
2023-04-30T22:50:21.188Z,10.80
2023-04-30T22:52:48.328Z,10.81
2023-04-30T22:55:15.130Z,10.80
2023-04-30T22:57:41.581Z,10.78
2023-04-30T23:00:09.723Z,10.74
2023-04-30T23:02:36.472Z,10.75
2023-04-30T23:05:03.885Z,10.70
2023-04-30T23:07:30.405Z,10.64
2023-04-30T23:09:57.198Z,10.58
2023-04-30T23:12:23.823Z,10.54
2023-04-30T23:14:50.847Z,10.54
2023-04-30T23:17:17.954Z,10.53
2023-04-30T23:19:44.473Z,10.47
2023-04-30T23:22:10.969Z,10.39
2023-04-30T23:24:38.612Z,10.36
2023-04-30T23:27:05.092Z,10.34
2023-04-30T23:29:31.637Z,10.31
2023-04-30T23:31:58.190Z,10.29
2023-04-30T23:34:24.740Z,10.22
2023-04-30T23:36:51.141Z,10.18
2023-04-30T23:39:17.490Z,10.14
2023-04-30T23:41:44.592Z,10.10
2023-04-30T23:44:13.221Z,10.04
2023-04-30T23:46:40.004Z,10.00
2023-04-30T23:49:06.693Z,9.93
2023-04-30T23:51:33.334Z,9.88
2023-04-30T23:53:59.797Z,9.84
2023-04-30T23:56:26.219Z,9.77
2023-04-30T23:58:52.596Z,9.75
